Time;durP1;ratioP1;P1;durP2;ratioP2;P2;SDS_P1;SDS_P2;PMS_P1;PMS_P2;Temp;Humidity;BMP_temperature;BMP_pressure;BME280_temperature;BME280_humidity;BME280_pressure;Samples;Min_cycle;Max_cycle;Signal;HPM_P1;HPM_P2
2023/10/25 00:00:47;;;;;;;12.60;8.10;;;13.10;99.90;;;;;;5059494;28;20460;-62
2023/10/25 00:03:15;;;;;;;15.10;9.67;;;13.10;99.90;;;;;;5059842;28;20431;-65
2023/10/25 00:05:46;;;;;;;12.97;9.20;;;13.10;99.90;;;;;;5060044;28;20439;-55
2023/10/25 00:08:12;;;;;;;13.30;9.20;;;13.20;99.90;;;;;;5059201;28;20456;-65
2023/10/25 00:10:43;;;;;;;13.30;8.27;;;13.20;99.90;;;;;;5058828;28;20452;-66
2023/10/25 00:13:12;;;;;;;14.53;9.60;;;12.80;99.90;;;;;;5058495;28;20431;-67
2023/10/25 00:15:39;;;;;;;12.50;7.83;;;13.20;99.90;;;;;;5058188;28;20464;-67
2023/10/25 00:18:06;;;;;;;13.87;9.60;;;13.10;99.90;;;;;;5058198;28;20475;-61
2023/10/25 00:20:33;;;;;;;13.07;8.80;;;13.20;99.90;;;;;;5058069;28;20432;-65
2023/10/25 00:23:00;;;;;;;10.50;7.70;;;13.20;99.90;;;;;;5057911;28;20444;-65
2023/10/25 00:25:26;;;;;;;15.87;8.47;;;13.20;99.90;;;;;;5057725;28;20488;-67
2023/10/25 00:27:55;;;;;;;12.03;9.30;;;13.20;99.90;;;;;;5057813;28;20440;-62
2023/10/25 00:30:21;;;;;;;13.80;8.60;;;13.20;99.90;;;;;;5058099;28;20463;-64
2023/10/25 00:32:50;;;;;;;14.57;9.70;;;13.20;99.90;;;;;;5057136;28;20459;-66
2023/10/25 00:35:17;;;;;;;11.03;9.07;;;13.20;99.90;;;;;;5057577;28;20432;-62
2023/10/25 00:37:44;;;;;;;12.83;8.53;;;13.20;99.90;;;;;;5057218;28;20435;-63
2023/10/25 00:40:13;;;;;;;9.70;7.60;;;13.20;99.90;;;;;;5057404;28;20455;-66
2023/10/25 00:42:40;;;;;;;10.93;7.80;;;13.20;99.90;;;;;;5057215;28;20449;-62
2023/10/25 00:45:09;;;;;;;12.73;8.20;;;13.20;99.90;;;;;;5057270;28;20457;-59
2023/10/25 00:47:36;;;;;;;10.43;7.53;;;13.20;99.90;;;;;;5056958;28;20499;-65
2023/10/25 00:50:07;;;;;;;9.37;7.50;;;13.10;99.90;;;;;;5057000;28;20468;-67
2023/10/25 00:52:34;;;;;;;11.23;8.73;;;13.10;99.90;;;;;;5056621;28;20460;-63
2023/10/25 00:55:02;;;;;;;12.60;8.80;;;13.10;99.90;;;;;;5056757;28;20471;-68
2023/10/25 00:57:32;;;;;;;11.00;8.47;;;13.10;99.90;;;;;;5057303;28;20512;-65
2023/10/25 01:00:00;;;;;;;10.20;7.70;;;13.10;99.90;;;;;;5057184;28;20425;-62
2023/10/25 01:02:29;;;;;;;8.20;6.23;;;13.10;99.90;;;;;;5057170;28;20448;-63
2023/10/25 01:04:56;;;;;;;7.50;6.70;;;13.00;99.90;;;;;;5056086;28;20432;-61
2023/10/25 01:07:23;;;;;;;9.20;7.53;;;13.10;99.90;;;;;;5056385;28;20463;-65
2023/10/25 01:09:49;;;;;;;9.13;7.43;;;13.00;99.90;;;;;;5056806;28;20511;-67
2023/10/25 01:12:16;;;;;;;8.20;5.63;;;13.00;99.90;;;;;;5057312;28;20443;-57
2023/10/25 01:14:43;;;;;;;11.13;7.60;;;13.00;99.90;;;;;;5056772;28;20435;-66
2023/10/25 01:17:11;;;;;;;7.87;6.03;;;13.00;99.90;;;;;;5056807;28;20424;-63
2023/10/25 01:19:39;;;;;;;8.10;6.83;;;13.10;99.90;;;;;;5056796;28;20437;-68
2023/10/25 01:22:06;;;;;;;9.50;6.40;;;13.00;99.90;;;;;;5057009;28;20467;-63
2023/10/25 01:24:34;;;;;;;6.97;5.10;;;13.10;99.90;;;;;;5057145;28;20463;-62
2023/10/25 01:27:01;;;;;;;9.43;6.03;;;13.10;99.90;;;;;;5056665;28;20444;-64
2023/10/25 01:29:28;;;;;;;6.30;5.20;;;13.00;99.90;;;;;;5057050;28;20510;-58
2023/10/25 01:31:55;;;;;;;6.10;4.70;;;13.00;99.90;;;;;;5057600;28;20440;-63
2023/10/25 01:34:22;;;;;;;5.70;5.17;;;13.00;99.90;;;;;;5057585;28;20448;-58
2023/10/25 01:36:50;;;;;;;7.70;5.60;;;13.00;99.90;;;;;;5057378;28;20452;-64
2023/10/25 01:39:17;;;;;;;5.20;4.70;;;12.90;99.90;;;;;;5056571;28;20424;-63
2023/10/25 01:41:45;;;;;;;6.20;5.20;;;13.00;99.90;;;;;;5056536;28;20472;-66
2023/10/25 01:44:12;;;;;;;7.13;4.40;;;13.00;99.90;;;;;;5056028;28;20409;-66
2023/10/25 01:46:39;;;;;;;4.73;4.33;;;13.00;99.90;;;;;;5055709;28;20440;-64
2023/10/25 01:49:06;;;;;;;6.00;4.33;;;13.00;99.90;;;;;;5055891;28;20483;-65
2023/10/25 01:51:33;;;;;;;6.13;5.47;;;13.00;99.90;;;;;;5056340;28;20468;-65
2023/10/25 01:53:59;;;;;;;7.20;5.53;;;13.10;99.90;;;;;;5056286;28;20446;-62
2023/10/25 01:56:26;;;;;;;6.07;5.33;;;13.00;99.90;;;;;;5055805;28;20443;-65
2023/10/25 01:58:55;;;;;;;6.33;5.70;;;13.10;99.90;;;;;;5056923;28;20448;-63
2023/10/25 02:01:22;;;;;;;6.63;5.80;;;13.10;99.90;;;;;;5056786;28;20431;-62
2023/10/25 02:03:48;;;;;;;5.83;4.63;;;13.10;99.90;;;;;;5056218;28;20444;-66
2023/10/25 02:06:16;;;;;;;6.03;4.97;;;13.10;99.90;;;;;;5057556;28;20428;-60
2023/10/25 02:08:45;;;;;;;5.43;4.80;;;13.00;99.90;;;;;;5057195;28;20483;-62
2023/10/25 02:11:12;;;;;;;8.80;6.10;;;13.00;99.90;;;;;;5056417;28;20428;-67
2023/10/25 02:13:39;;;;;;;10.53;6.90;;;13.00;99.90;;;;;;5057175;28;20437;-67
2023/10/25 02:16:15;;;;;;;8.33;7.40;;;13.00;99.90;;;;;;5059731;28;20500;-64
2023/10/25 02:18:45;;;;;;;11.70;7.20;;;12.90;99.90;;;;;;5061061;28;20444;-65
2023/10/25 02:21:11;;;;;;;9.20;8.00;;;12.90;99.90;;;;;;5061041;28;20417;-61
2023/10/25 02:23:40;;;;;;;10.80;8.30;;;12.90;99.90;;;;;;5061414;28;20428;-66
2023/10/25 02:26:06;;;;;;;12.00;8.80;;;12.90;99.90;;;;;;5061467;28;20494;-64
2023/10/25 02:28:33;;;;;;;11.23;9.30;;;13.00;99.90;;;;;;5061401;28;20539;-62
2023/10/25 02:31:01;;;;;;;13.87;10.13;;;12.90;99.90;;;;;;5060846;28;20444;-65
2023/10/25 02:33:29;;;;;;;12.90;9.07;;;13.00;99.90;;;;;;5060661;28;20935;-63
2023/10/25 02:35:57;;;;;;;15.57;8.83;;;12.90;99.90;;;;;;5060668;28;20482;-65
2023/10/25 02:38:27;;;;;;;14.00;9.03;;;12.90;99.90;;;;;;5060994;28;20540;-59
2023/10/25 02:40:54;;;;;;;18.83;12.03;;;12.90;99.90;;;;;;5060049;28;20444;-66
2023/10/25 02:43:22;;;;;;;16.70;10.47;;;12.90;99.90;;;;;;5060678;28;20460;-61
2023/10/25 02:45:49;;;;;;;14.50;11.13;;;12.90;99.90;;;;;;5060355;28;20459;-59
2023/10/25 02:48:18;;;;;;;12.20;9.10;;;12.90;99.90;;;;;;5059956;28;20472;-63
2023/10/25 02:50:46;;;;;;;16.37;11.27;;;12.90;99.90;;;;;;5059989;28;20458;-65
2023/10/25 02:53:13;;;;;;;13.70;10.53;;;12.90;99.90;;;;;;5059452;28;20439;-64
2023/10/25 02:55:40;;;;;;;19.70;11.27;;;12.90;99.90;;;;;;5060003;28;20475;-60
2023/10/25 02:58:07;;;;;;;16.37;11.40;;;12.80;99.90;;;;;;5059310;28;20438;-67
2023/10/25 03:00:33;;;;;;;20.43;12.67;;;12.90;99.90;;;;;;5059445;28;20448;-64
2023/10/25 03:03:00;;;;;;;15.80;11.60;;;12.80;99.90;;;;;;5059757;28;20420;-62
2023/10/25 03:05:27;;;;;;;14.70;10.60;;;12.80;99.90;;;;;;5059629;28;20444;-66
2023/10/25 03:07:55;;;;;;;15.33;11.83;;;12.80;99.90;;;;;;5059317;28;20460;-67
2023/10/25 03:10:22;;;;;;;13.90;10.20;;;12.70;99.90;;;;;;5059821;28;20507;-63
2023/10/25 03:12:49;;;;;;;16.27;11.03;;;12.80;99.90;;;;;;5059846;28;20440;-57
2023/10/25 03:15:16;;;;;;;16.67;11.10;;;12.80;99.90;;;;;;5060152;28;20482;-60
2023/10/25 03:17:43;;;;;;;17.00;11.60;;;12.70;99.90;;;;;;5059947;28;20432;-65
2023/10/25 03:20:13;;;;;;;19.17;12.70;;;12.70;99.90;;;;;;5059565;28;20463;-68
2023/10/25 03:22:40;;;;;;;17.00;11.73;;;12.70;99.90;;;;;;5059390;28;20440;-63
2023/10/25 03:25:10;;;;;;;15.67;11.27;;;12.80;99.90;;;;;;5059552;28;20444;-64
2023/10/25 03:27:37;;;;;;;13.80;11.13;;;12.80;99.90;;;;;;5058949;28;20444;-62
2023/10/25 03:30:04;;;;;;;14.10;11.17;;;12.70;99.90;;;;;;5059974;28;20558;-61
2023/10/25 03:32:34;;;;;;;16.90;11.00;;;12.70;99.90;;;;;;5059704;28;20447;-68
2023/10/25 03:35:02;;;;;;;18.53;11.27;;;12.70;99.90;;;;;;5059521;28;20468;-65
2023/10/25 03:37:29;;;;;;;16.43;12.13;;;12.70;99.90;;;;;;5059330;28;20482;-65
2023/10/25 03:39:56;;;;;;;15.53;11.10;;;12.70;99.90;;;;;;5059734;28;20432;-60
2023/10/25 03:42:24;;;;;;;15.43;10.87;;;12.60;99.90;;;;;;5059592;28;20428;-62
2023/10/25 03:44:53;;;;;;;14.03;9.87;;;12.60;99.90;;;;;;5059535;28;20428;-63
2023/10/25 03:47:19;;;;;;;16.80;11.37;;;12.70;99.90;;;;;;5059484;28;20460;-66
2023/10/25 03:49:46;;;;;;;16.30;10.53;;;12.70;99.90;;;;;;5059496;28;20460;-60
2023/10/25 03:52:13;;;;;;;14.60;10.70;;;12.70;99.90;;;;;;5059647;28;20463;-65
2023/10/25 03:54:40;;;;;;;14.40;11.50;;;12.60;99.90;;;;;;5059495;28;20448;-60
2023/10/25 03:57:07;;;;;;;14.27;10.00;;;12.60;99.90;;;;;;5059608;28;20447;-62
2023/10/25 03:59:38;;;;;;;15.67;11.00;;;12.60;99.90;;;;;;5059999;28;20440;-64
2023/10/25 04:02:05;;;;;;;17.80;11.20;;;12.60;99.90;;;;;;5059754;28;20462;-65
2023/10/25 04:04:32;;;;;;;16.60;10.80;;;12.60;99.90;;;;;;5059468;28;20429;-60
2023/10/25 04:07:03;;;;;;;16.80;11.37;;;12.50;99.90;;;;;;5059552;28;20439;-58
2023/10/25 04:09:29;;;;;;;17.10;11.17;;;12.50;99.90;;;;;;5059215;28;20466;-61
2023/10/25 04:11:58;;;;;;;13.93;10.27;;;12.50;99.90;;;;;;5059020;28;20459;-65
2023/10/25 04:14:25;;;;;;;18.07;13.03;;;12.50;99.90;;;;;;5059274;28;20468;-62
2023/10/25 04:16:55;;;;;;;13.90;10.17;;;12.50;99.90;;;;;;5058920;28;20451;-65
2023/10/25 04:19:22;;;;;;;15.37;11.60;;;12.50;99.90;;;;;;5058857;28;20443;-63
2023/10/25 04:21:49;;;;;;;16.67;10.87;;;12.50;99.90;;;;;;5058624;28;20464;-67
2023/10/25 04:24:19;;;;;;;14.73;10.80;;;12.50;99.90;;;;;;5058235;28;20452;-63
2023/10/25 04:26:46;;;;;;;18.70;13.10;;;12.50;99.90;;;;;;5059153;28;20444;-65
2023/10/25 04:29:13;;;;;;;14.07;11.20;;;12.50;99.90;;;;;;5058999;28;20519;-63
2023/10/25 04:31:39;;;;;;;15.23;10.77;;;12.50;99.90;;;;;;5058915;28;20448;-64
2023/10/25 04:34:07;;;;;;;16.70;10.60;;;12.50;99.90;;;;;;5058202;28;20479;-60
2023/10/25 04:36:36;;;;;;;16.60;11.40;;;12.50;99.90;;;;;;5058621;28;20444;-59
2023/10/25 04:39:03;;;;;;;20.00;12.90;;;12.40;99.90;;;;;;5058545;28;20740;-63
2023/10/25 04:41:31;;;;;;;15.97;11.47;;;12.40;99.90;;;;;;5058493;28;20475;-63
2023/10/25 04:43:59;;;;;;;15.30;10.30;;;12.30;99.90;;;;;;5058233;28;20448;-61
2023/10/25 04:46:28;;;;;;;15.50;9.97;;;12.30;99.90;;;;;;5057914;28;20455;-60
2023/10/25 04:48:58;;;;;;;13.50;10.23;;;12.30;99.90;;;;;;5057801;28;20769;-59
2023/10/25 04:51:26;;;;;;;16.10;10.23;;;12.20;99.90;;;;;;5057975;28;20448;-67
2023/10/25 04:53:53;;;;;;;14.30;11.20;;;12.10;99.90;;;;;;5057953;28;20472;-64
2023/10/25 04:56:23;;;;;;;15.30;9.60;;;12.10;99.90;;;;;;5057687;28;20420;-66
2023/10/25 04:58:52;;;;;;;13.90;10.83;;;12.00;99.90;;;;;;5057777;28;20496;-64
2023/10/25 05:01:19;;;;;;;17.23;11.23;;;12.00;99.90;;;;;;5057601;28;20464;-60
2023/10/25 05:03:46;;;;;;;15.23;11.40;;;11.90;99.90;;;;;;5057226;28;20478;-66
2023/10/25 05:06:14;;;;;;;15.23;10.53;;;12.00;99.90;;;;;;5057398;28;20483;-63
2023/10/25 05:08:43;;;;;;;19.23;11.97;;;11.90;99.90;;;;;;5057642;28;20468;-67
2023/10/25 05:11:15;;;;;;;19.20;11.40;;;11.90;99.90;;;;;;5057580;28;20472;-62
2023/10/25 05:13:43;;;;;;;19.53;12.33;;;11.80;99.90;;;;;;5057183;28;20424;-59
2023/10/25 05:16:11;;;;;;;14.53;10.60;;;11.80;99.90;;;;;;5057420;28;20409;-59
2023/10/25 05:18:39;;;;;;;20.87;12.07;;;11.80;99.90;;;;;;5056673;28;20444;-67
2023/10/25 05:21:06;;;;;;;16.50;11.33;;;11.70;99.90;;;;;;5056772;28;20479;-66
2023/10/25 05:23:35;;;;;;;20.43;13.57;;;11.70;99.90;;;;;;5057229;28;20463;-65
2023/10/25 05:26:06;;;;;;;16.57;11.40;;;11.70;99.90;;;;;;5056785;28;20479;-67
2023/10/25 05:28:33;;;;;;;15.37;11.20;;;11.70;99.90;;;;;;5056668;28;20432;-65
2023/10/25 05:31:02;;;;;;;17.60;11.53;;;11.60;99.90;;;;;;5056260;28;20472;-60
2023/10/25 05:33:32;;;;;;;19.63;13.07;;;11.60;99.90;;;;;;5056258;28;20424;-65
2023/10/25 05:36:02;;;;;;;20.50;11.87;;;11.60;99.90;;;;;;5056535;28;20412;-64
2023/10/25 05:38:33;;;;;;;18.97;12.50;;;11.50;99.90;;;;;;5056491;28;20430;-63
2023/10/25 05:41:00;;;;;;;20.20;11.93;;;11.60;99.90;;;;;;5056542;28;20444;-63
2023/10/25 05:43:30;;;;;;;13.43;10.47;;;11.50;99.90;;;;;;5056846;28;20449;-68
2023/10/25 05:45:57;;;;;;;17.40;11.63;;;11.40;99.90;;;;;;5056832;28;20420;-65
2023/10/25 05:48:26;;;;;;;18.57;12.40;;;11.50;99.90;;;;;;5056921;28;20452;-65
2023/10/25 05:50:56;;;;;;;17.23;11.37;;;11.50;99.90;;;;;;5056820;28;20515;-61
2023/10/25 05:53:23;;;;;;;16.23;13.00;;;11.50;99.90;;;;;;5056269;28;20454;-65
2023/10/25 05:55:51;;;;;;;16.60;11.90;;;11.50;99.90;;;;;;5056253;28;20436;-65
2023/10/25 05:58:18;;;;;;;19.53;13.50;;;11.40;99.90;;;;;;5056216;28;20448;-66
2023/10/25 06:00:51;;;;;;;17.53;12.60;;;11.40;99.90;;;;;;5056198;28;20455;-63
2023/10/25 06:03:20;;;;;;;15.33;11.43;;;11.30;99.90;;;;;;5056879;28;20437;-58
2023/10/25 06:05:51;;;;;;;18.93;12.90;;;11.30;99.90;;;;;;5054909;28;20440;-64
2023/10/25 06:08:18;;;;;;;15.73;11.20;;;11.40;99.90;;;;;;5054862;28;20459;-63
2023/10/25 06:10:46;;;;;;;21.97;13.10;;;11.40;99.90;;;;;;5054101;28;20487;-64
2023/10/25 06:13:13;;;;;;;20.67;11.97;;;11.40;99.90;;;;;;5055135;28;20503;-60
2023/10/25 06:15:40;;;;;;;17.10;11.30;;;11.50;99.90;;;;;;5055490;28;20444;-63
2023/10/25 06:18:10;;;;;;;15.40;10.80;;;11.50;99.90;;;;;;5055292;28;20448;-66
2023/10/25 06:20:36;;;;;;;18.73;11.67;;;11.50;99.90;;;;;;5055234;28;20459;-58
2023/10/25 06:23:03;;;;;;;31.17;13.07;;;11.50;99.90;;;;;;5055259;28;20468;-60
2023/10/25 06:25:33;;;;;;;21.07;12.00;;;11.50;99.90;;;;;;5055361;28;20491;-64
2023/10/25 06:28:03;;;;;;;17.93;12.03;;;11.50;99.90;;;;;;5055624;28;20420;-61
2023/10/25 06:30:33;;;;;;;15.73;11.67;;;11.50;99.90;;;;;;5055911;28;20516;-62
2023/10/25 06:33:04;;;;;;;20.70;12.93;;;11.50;99.90;;;;;;5055604;28;20479;-60
2023/10/25 06:35:38;;;;;;;20.97;13.03;;;11.50;99.90;;;;;;5057227;28;20419;-57
2023/10/25 06:38:06;;;;;;;17.40;11.20;;;11.60;99.90;;;;;;5056773;28;20456;-60
2023/10/25 06:40:33;;;;;;;19.17;13.17;;;11.60;99.90;;;;;;5056727;28;20424;-55
2023/10/25 06:43:03;;;;;;;23.60;14.00;;;11.60;99.90;;;;;;5056591;28;20444;-56
2023/10/25 06:45:30;;;;;;;23.00;13.77;;;11.70;99.90;;;;;;5056468;28;20447;-64
2023/10/25 06:47:57;;;;;;;17.90;12.47;;;11.80;99.90;;;;;;5056102;28;20428;-60
2023/10/25 06:50:26;;;;;;;17.93;12.90;;;11.80;99.90;;;;;;5056212;28;20475;-61
2023/10/25 06:52:55;;;;;;;17.30;13.40;;;11.80;99.90;;;;;;5055832;28;20511;-57
2023/10/25 06:55:25;;;;;;;23.47;14.73;;;11.80;99.90;;;;;;5056447;28;20441;-55
2023/10/25 06:57:52;;;;;;;19.43;14.53;;;11.90;99.90;;;;;;5056124;28;20452;-62
2023/10/25 07:00:20;;;;;;;21.33;14.70;;;11.90;99.90;;;;;;5055275;28;20436;-67
2023/10/25 07:02:51;;;;;;;21.97;14.07;;;11.90;99.90;;;;;;5057624;28;20456;-66
2023/10/25 07:05:20;;;;;;;20.23;13.70;;;12.00;99.90;;;;;;5059171;28;20444;-57
2023/10/25 07:07:50;;;;;;;21.13;13.57;;;11.90;99.90;;;;;;5059272;28;20436;-56
2023/10/25 07:10:21;;;;;;;21.73;14.77;;;12.00;99.90;;;;;;5058854;28;20483;-64
2023/10/25 07:12:48;;;;;;;22.30;13.10;;;12.00;99.90;;;;;;5059250;28;20429;-61
2023/10/25 07:15:16;;;;;;;19.43;12.73;;;11.90;99.90;;;;;;5059367;28;20452;-67
2023/10/25 07:17:44;;;;;;;19.53;12.90;;;11.90;99.90;;;;;;5060134;28;20439;-59
2023/10/25 07:20:12;;;;;;;23.20;14.40;;;12.00;99.90;;;;;;5060118;28;20447;-57
2023/10/25 07:22:39;;;;;;;17.83;11.80;;;11.90;99.90;;;;;;5060075;28;20448;-63
2023/10/25 07:25:07;;;;;;;23.23;15.07;;;11.90;99.90;;;;;;5060117;28;20432;-60
2023/10/25 07:27:37;;;;;;;26.87;14.60;;;11.90;99.90;;;;;;5060289;28;20445;-64
2023/10/25 07:30:04;;;;;;;16.70;11.50;;;11.80;99.90;;;;;;5060193;28;20455;-66
2023/10/25 07:32:32;;;;;;;18.30;12.07;;;11.80;99.90;;;;;;5060085;28;20432;-59
2023/10/25 07:34:59;;;;;;;22.03;11.83;;;11.80;99.90;;;;;;5059578;28;20519;-65
2023/10/25 07:37:25;;;;;;;19.50;12.30;;;11.90;99.90;;;;;;5059840;28;20448;-62
2023/10/25 07:39:52;;;;;;;22.60;13.93;;;11.90;99.90;;;;;;5059542;28;20428;-64
2023/10/25 07:42:19;;;;;;;24.23;12.87;;;11.90;99.90;;;;;;5059546;28;20460;-63
2023/10/25 07:44:47;;;;;;;18.93;12.40;;;11.90;99.90;;;;;;5059526;28;20463;-60
2023/10/25 07:47:17;;;;;;;21.17;14.27;;;12.00;99.90;;;;;;5059325;28;20428;-63
2023/10/25 07:49:46;;;;;;;26.07;14.53;;;12.10;99.90;;;;;;5058690;28;20432;-65
2023/10/25 07:52:13;;;;;;;23.43;14.77;;;12.20;99.90;;;;;;5058427;28;20560;-64
2023/10/25 07:54:40;;;;;;;22.87;13.80;;;12.30;99.90;;;;;;5059011;28;20460;-60
2023/10/25 07:57:07;;;;;;;15.00;10.53;;;12.30;99.90;;;;;;5059320;28;20440;-66
2023/10/25 07:59:33;;;;;;;24.13;14.37;;;12.40;99.90;;;;;;5058983;28;20440;-65
2023/10/25 08:02:02;;;;;;;19.60;12.27;;;12.50;99.90;;;;;;5059048;28;20448;-68
2023/10/25 08:04:29;;;;;;;17.93;12.17;;;12.60;99.90;;;;;;5058567;28;20448;-65
2023/10/25 08:06:58;;;;;;;22.70;10.70;;;12.70;99.90;;;;;;5058429;28;20464;-66
2023/10/25 08:09:25;;;;;;;18.67;11.17;;;12.80;99.90;;;;;;5059005;28;20444;-68
2023/10/25 08:11:52;;;;;;;18.97;12.60;;;12.80;99.90;;;;;;5058478;28;20496;-67
2023/10/25 08:14:21;;;;;;;22.00;12.87;;;12.80;99.90;;;;;;5058485;28;20448;-61
2023/10/25 08:16:50;;;;;;;14.93;10.30;;;12.80;99.90;;;;;;5058392;28;20444;-63
2023/10/25 08:19:19;;;;;;;15.53;10.00;;;12.80;99.90;;;;;;5057758;28;20495;-65
2023/10/25 08:21:46;;;;;;;19.00;10.40;;;12.80;99.90;;;;;;5058702;28;20433;-65
2023/10/25 08:24:13;;;;;;;19.03;10.60;;;12.90;99.90;;;;;;5058588;28;20447;-65
2023/10/25 08:26:40;;;;;;;16.90;11.30;;;12.90;99.90;;;;;;5058552;28;20444;-61
2023/10/25 08:29:07;;;;;;;20.80;12.40;;;12.90;99.90;;;;;;5058795;28;20473;-61
2023/10/25 08:31:35;;;;;;;21.50;13.20;;;12.90;99.90;;;;;;5058642;28;20476;-65
2023/10/25 08:34:02;;;;;;;22.30;11.50;;;12.90;99.90;;;;;;5059005;28;20436;-61
2023/10/25 08:36:31;;;;;;;16.20;11.90;;;12.90;99.90;;;;;;5058586;28;20428;-62
2023/10/25 08:38:58;;;;;;;14.93;10.30;;;13.00;99.90;;;;;;5058703;28;20472;-65
2023/10/25 08:41:27;;;;;;;18.00;11.20;;;13.00;99.90;;;;;;5058416;28;20451;-63
2023/10/25 08:43:59;;;;;;;14.27;10.23;;;13.10;99.90;;;;;;5058231;28;20515;-64
2023/10/25 08:46:26;;;;;;;16.67;12.00;;;13.20;99.90;;;;;;5058669;28;20412;-67
2023/10/25 08:48:55;;;;;;;18.43;11.27;;;13.10;99.90;;;;;;5058526;28;20435;-62
2023/10/25 08:51:24;;;;;;;15.70;11.17;;;13.10;99.90;;;;;;5058011;28;20464;-64
2023/10/25 08:53:55;;;;;;;15.17;10.13;;;13.20;99.90;;;;;;5057736;28;20460;-67
2023/10/25 08:56:25;;;;;;;15.40;11.73;;;13.30;99.90;;;;;;5057171;28;20467;-68
2023/10/25 08:58:52;;;;;;;18.93;12.43;;;13.40;99.90;;;;;;5057636;28;20412;-64
2023/10/25 09:01:19;;;;;;;13.00;10.57;;;13.50;99.90;;;;;;5057633;28;20424;-66
2023/10/25 09:03:46;;;;;;;16.93;11.40;;;13.60;99.90;;;;;;5057331;28;20451;-65
2023/10/25 09:06:24;;;;;;;17.53;10.07;;;13.70;99.90;;;;;;5057771;28;20443;-64
2023/10/25 09:09:05;;;;;;;13.70;9.43;;;13.70;99.90;;;;;;5056200;28;20468;-65
2023/10/25 09:11:43;;;;;;;14.87;10.20;;;13.70;99.90;;;;;;5056584;28;20464;-63
2023/10/25 09:14:11;;;;;;;18.90;12.17;;;13.70;99.90;;;;;;5056348;28;20484;-63
2023/10/25 09:16:41;;;;;;;15.17;10.63;;;13.60;99.90;;;;;;5056855;28;20453;-59
2023/10/25 09:19:08;;;;;;;15.67;10.07;;;13.60;99.90;;;;;;5057063;28;20432;-63
2023/10/25 09:21:35;;;;;;;18.40;10.07;;;13.60;99.90;;;;;;5052742;28;20445;-65
2023/10/25 09:24:07;;;;;;;16.37;10.80;;;13.40;99.90;;;;;;5034977;28;20498;-67
2023/10/25 09:26:36;;;;;;;13.37;9.87;;;13.50;99.90;;;;;;5035126;28;20455;-66
2023/10/25 09:29:04;;;;;;;14.90;9.63;;;13.80;99.90;;;;;;5035076;28;20472;-66
2023/10/25 09:31:33;;;;;;;14.20;9.63;;;13.80;99.90;;;;;;5035136;28;20968;-66
2023/10/25 09:34:08;;;;;;;13.43;9.70;;;13.80;99.90;;;;;;5034779;28;20461;-68
2023/10/25 09:36:35;;;;;;;16.43;8.60;;;13.80;99.90;;;;;;5035069;28;20500;-62
2023/10/25 09:39:04;;;;;;;14.47;9.90;;;14.00;99.90;;;;;;5035301;28;20444;-70
2023/10/25 09:41:35;;;;;;;13.90;7.70;;;14.30;99.90;;;;;;5035247;28;20451;-71
2023/10/25 09:44:05;;;;;;;13.77;9.00;;;14.50;99.90;;;;;;5035155;28;20451;-67
2023/10/25 09:46:34;;;;;;;12.47;8.93;;;14.70;99.90;;;;;;5034645;28;20453;-71
2023/10/25 09:49:06;;;;;;;10.97;8.37;;;15.00;99.90;;;;;;5034533;28;20508;-71
2023/10/25 09:51:47;;;;;;;9.07;7.23;;;15.10;99.90;;;;;;5034643;28;20566;-70
2023/10/25 09:54:24;;;;;;;10.50;7.70;;;15.20;99.90;;;;;;5034757;28;20444;-71
2023/10/25 09:56:54;;;;;;;10.53;7.40;;;15.30;99.90;;;;;;5034854;28;20472;-70
2023/10/25 09:59:22;;;;;;;10.63;8.53;;;15.40;99.90;;;;;;5035858;28;20440;-68
2023/10/25 10:01:49;;;;;;;15.93;7.50;;;15.40;99.90;;;;;;5034337;28;20526;-68
2023/10/25 10:04:26;;;;;;;11.67;7.60;;;15.30;99.90;;;;;;5034459;28;20439;-69
2023/10/25 10:07:03;;;;;;;11.30;8.40;;;15.10;99.90;;;;;;5034463;28;20438;-65
2023/10/25 10:09:38;;;;;;;10.60;8.00;;;14.90;99.90;;;;;;5034579;28;20885;-67
2023/10/25 10:12:07;;;;;;;12.17;7.83;;;14.70;99.90;;;;;;5034598;28;20517;-68
2023/10/25 10:14:35;;;;;;;11.70;8.20;;;14.50;99.90;;;;;;5034229;28;20555;-66
2023/10/25 10:17:06;;;;;;;9.80;8.27;;;14.40;99.90;;;;;;5034569;28;20502;-69
2023/10/25 10:19:37;;;;;;;12.73;8.40;;;14.50;99.90;;;;;;5034759;28;20432;-67
2023/10/25 10:22:06;;;;;;;13.17;9.00;;;14.40;99.90;;;;;;5034594;28;20464;-68
2023/10/25 10:24:46;;;;;;;14.57;8.60;;;14.50;99.90;;;;;;5034303;28;20450;-65
2023/10/25 10:27:14;;;;;;;11.73;9.00;;;14.60;99.90;;;;;;5034156;28;20468;-66
2023/10/25 10:29:43;;;;;;;11.80;6.80;;;14.60;99.90;;;;;;5034276;28;20536;-67
2023/10/25 10:32:11;;;;;;;10.33;7.03;;;14.90;99.90;;;;;;5034172;28;20515;-67
2023/10/25 10:34:44;;;;;;;9.57;7.27;;;15.00;99.90;;;;;;5034561;28;20532;-66
2023/10/25 10:37:12;;;;;;;14.60;9.90;;;15.10;99.90;;;;;;5037220;28;20425;-66
2023/10/25 10:39:59;;;;;;;11.50;5.97;;;15.20;99.90;;;;;;5037994;28;20464;-66
2023/10/25 10:42:33;;;;;;;7.87;6.20;;;15.10;99.90;;;;;;5037961;28;20463;-67
2023/10/25 10:45:01;;;;;;;6.77;6.07;;;15.00;99.90;;;;;;5038096;28;20428;-67
2023/10/25 10:47:34;;;;;;;13.40;6.30;;;15.00;99.90;;;;;;5037963;28;20424;-67
2023/10/25 10:50:09;;;;;;;8.63;6.17;;;15.00;99.90;;;;;;5038173;28;20432;-67
2023/10/25 10:52:36;;;;;;;13.80;5.93;;;15.00;99.90;;;;;;5037703;28;20556;-67
2023/10/25 10:55:03;;;;;;;9.07;6.40;;;15.00;99.90;;;;;;5037915;28;20471;-67
2023/10/25 10:57:31;;;;;;;8.90;6.57;;;15.00;99.90;;;;;;5037728;28;20560;-69
2023/10/25 10:59:58;;;;;;;12.30;6.43;;;15.00;99.90;;;;;;5037575;28;20972;-64
2023/10/25 11:02:26;;;;;;;9.23;5.67;;;15.10;99.90;;;;;;5037541;28;20443;-68
2023/10/25 11:04:54;;;;;;;8.53;6.37;;;15.20;99.90;;;;;;5037836;28;20452;-68
2023/10/25 11:07:21;;;;;;;7.37;5.90;;;15.40;99.90;;;;;;5037739;28;20735;-67
2023/10/25 11:09:48;;;;;;;10.33;6.03;;;15.50;99.90;;;;;;5037455;28;20551;-67
2023/10/25 11:12:15;;;;;;;7.40;5.60;;;15.60;99.90;;;;;;5037773;28;20537;-70
2023/10/25 11:14:45;;;;;;;7.57;5.50;;;15.70;99.90;;;;;;5037781;28;20444;-68
2023/10/25 11:17:13;;;;;;;10.50;6.40;;;15.80;99.90;;;;;;5037407;28;20510;-67
2023/10/25 11:19:40;;;;;;;9.87;6.53;;;15.90;99.90;;;;;;5037601;28;20534;-66
2023/10/25 11:22:07;;;;;;;7.23;6.00;;;15.90;99.90;;;;;;5037236;28;20467;-67
2023/10/25 11:24:36;;;;;;;9.93;6.33;;;15.90;99.90;;;;;;5037267;28;20535;-67
2023/10/25 11:27:03;;;;;;;9.83;6.63;;;15.90;99.90;;;;;;5037173;28;20440;-65
2023/10/25 11:29:32;;;;;;;7.60;5.70;;;15.90;99.90;;;;;;5037505;28;20751;-66
2023/10/25 11:32:04;;;;;;;8.37;6.13;;;15.80;99.90;;;;;;5036930;28;20563;-67
2023/10/25 11:34:32;;;;;;;9.07;6.33;;;15.80;99.90;;;;;;5036932;28;20475;-67
2023/10/25 11:37:00;;;;;;;7.03;6.30;;;15.70;99.90;;;;;;5038394;28;20425;-68
2023/10/25 11:39:30;;;;;;;7.80;6.90;;;15.70;99.90;;;;;;5037216;28;20466;-66
2023/10/25 11:41:59;;;;;;;7.97;5.43;;;15.60;99.90;;;;;;5037091;28;20498;-66
2023/10/25 11:44:27;;;;;;;7.63;5.43;;;15.60;99.90;;;;;;5037184;28;20472;-66
2023/10/25 11:46:58;;;;;;;8.40;5.70;;;15.50;99.90;;;;;;5036999;28;20476;-68
2023/10/25 11:49:26;;;;;;;8.70;5.67;;;15.50;99.90;;;;;;5036869;28;20439;-67
2023/10/25 11:51:54;;;;;;;15.20;6.70;;;15.60;99.90;;;;;;5036851;28;20589;-67
2023/10/25 11:54:21;;;;;;;9.53;5.13;;;15.70;99.90;;;;;;5036986;28;20523;-67
2023/10/25 11:56:48;;;;;;;6.50;5.63;;;15.70;99.90;;;;;;5036643;28;20526;-65
2023/10/25 11:59:16;;;;;;;7.33;5.37;;;15.80;99.90;;;;;;5037010;28;20508;-68
2023/10/25 12:01:42;;;;;;;10.33;6.27;;;15.80;99.90;;;;;;5036552;28;20519;-68
2023/10/25 12:04:09;;;;;;;11.33;6.97;;;15.80;99.90;;;;;;5036840;28;20527;-67
2023/10/25 12:06:38;;;;;;;12.30;7.50;;;15.60;99.90;;;;;;5036890;28;20476;-69
2023/10/25 12:09:05;;;;;;;9.80;5.83;;;15.50;99.90;;;;;;5036436;28;20977;-68
2023/10/25 12:11:32;;;;;;;7.43;5.50;;;15.40;99.90;;;;;;5036240;28;21046;-67
2023/10/25 12:13:59;;;;;;;9.70;6.77;;;15.30;99.90;;;;;;5036617;28;20424;-69
2023/10/25 12:16:26;;;;;;;9.53;6.10;;;15.20;99.90;;;;;;5036247;28;20536;-70
2023/10/25 12:18:53;;;;;;;9.17;6.37;;;15.20;99.90;;;;;;5036432;28;20511;-68
2023/10/25 12:21:20;;;;;;;8.30;6.70;;;15.10;99.90;;;;;;5036491;28;20455;-70
2023/10/25 12:23:49;;;;;;;10.40;6.00;;;15.10;99.90;;;;;;5036338;28;20530;-69
2023/10/25 12:26:15;;;;;;;14.27;9.10;;;15.00;99.90;;;;;;5036907;28;20877;-70
2023/10/25 12:28:42;;;;;;;20.63;13.73;;;15.00;99.90;;;;;;5035951;28;20980;-69
2023/10/25 12:31:09;;;;;;;14.07;7.30;;;15.00;99.90;;;;;;5035851;28;20468;-67
2023/10/25 12:33:36;;;;;;;13.57;7.30;;;15.00;99.90;;;;;;5036133;28;20775;-68
2023/10/25 12:36:03;;;;;;;9.87;5.93;;;15.10;99.90;;;;;;5036795;28;20986;-65
2023/10/25 12:38:30;;;;;;;14.67;6.60;;;15.30;99.90;;;;;;5036232;28;20452;-69